sensor_id;sensor_type;location;lat;lon;timestamp;P1;durP1;ratioP1;P2;durP2;ratioP2
73632;SDS011;61927;50.080;14.418;2023-02-17T00:01:58;35.03;;;19.85;;
73632;SDS011;61927;50.080;14.418;2023-02-17T00:04:29;33.75;;;20.15;;
73632;SDS011;61927;50.080;14.418;2023-02-17T00:06:56;30.00;;;18.88;;
73632;SDS011;61927;50.080;14.418;2023-02-17T00:09:21;31.83;;;19.33;;
73632;SDS011;61927;50.080;14.418;2023-02-17T00:11:47;33.78;;;18.77;;
73632;SDS011;61927;50.080;14.418;2023-02-17T00:14:13;36.42;;;19.70;;
73632;SDS011;61927;50.080;14.418;2023-02-17T00:16:39;31.13;;;18.80;;
73632;SDS011;61927;50.080;14.418;2023-02-17T00:19:05;31.90;;;19.38;;
73632;SDS011;61927;50.080;14.418;2023-02-17T00:21:48;31.98;;;19.52;;
73632;SDS011;61927;50.080;14.418;2023-02-17T00:24:14;32.83;;;19.20;;
73632;SDS011;61927;50.080;14.418;2023-02-17T00:26:40;27.48;;;18.33;;
73632;SDS011;61927;50.080;14.418;2023-02-17T00:29:06;31.25;;;19.60;;
73632;SDS011;61927;50.080;14.418;2023-02-17T00:31:32;33.88;;;20.23;;
73632;SDS011;61927;50.080;14.418;2023-02-17T00:33:57;30.83;;;18.60;;
73632;SDS011;61927;50.080;14.418;2023-02-17T00:36:23;29.95;;;18.88;;
73632;SDS011;61927;50.080;14.418;2023-02-17T00:38:50;34.60;;;19.27;;
73632;SDS011;61927;50.080;14.418;2023-02-17T00:41:16;29.75;;;18.27;;
73632;SDS011;61927;50.080;14.418;2023-02-17T00:43:42;34.55;;;18.92;;
73632;SDS011;61927;50.080;14.418;2023-02-17T00:46:08;28.80;;;18.23;;
73632;SDS011;61927;50.080;14.418;2023-02-17T00:48:34;32.58;;;19.38;;
73632;SDS011;61927;50.080;14.418;2023-02-17T00:51:00;33.05;;;20.05;;
73632;SDS011;61927;50.080;14.418;2023-02-17T00:53:25;35.58;;;20.50;;
73632;SDS011;61927;50.080;14.418;2023-02-17T00:55:51;30.95;;;19.30;;
73632;SDS011;61927;50.080;14.418;2023-02-17T00:58:17;36.55;;;20.17;;
73632;SDS011;61927;50.080;14.418;2023-02-17T01:00:42;37.05;;;20.95;;
73632;SDS011;61927;50.080;14.418;2023-02-17T01:03:08;34.53;;;19.33;;
73632;SDS011;61927;50.080;14.418;2023-02-17T01:05:39;36.33;;;20.40;;
73632;SDS011;61927;50.080;14.418;2023-02-17T01:08:06;31.38;;;19.65;;
73632;SDS011;61927;50.080;14.418;2023-02-17T01:10:31;36.13;;;19.35;;
73632;SDS011;61927;50.080;14.418;2023-02-17T01:12:57;33.50;;;19.25;;
73632;SDS011;61927;50.080;14.418;2023-02-17T01:15:22;33.00;;;19.77;;
73632;SDS011;61927;50.080;14.418;2023-02-17T01:17:48;32.33;;;19.20;;
73632;SDS011;61927;50.080;14.418;2023-02-17T01:20:14;37.55;;;18.65;;
73632;SDS011;61927;50.080;14.418;2023-02-17T01:22:39;29.98;;;18.30;;
73632;SDS011;61927;50.080;14.418;2023-02-17T01:25:05;31.23;;;17.70;;
73632;SDS011;61927;50.080;14.418;2023-02-17T01:27:31;28.02;;;18.08;;
73632;SDS011;61927;50.080;14.418;2023-02-17T01:29:57;32.75;;;18.70;;
73632;SDS011;61927;50.080;14.418;2023-02-17T01:32:22;31.20;;;19.02;;
73632;SDS011;61927;50.080;14.418;2023-02-17T01:34:48;34.20;;;20.05;;
73632;SDS011;61927;50.080;14.418;2023-02-17T01:37:14;34.38;;;19.65;;
73632;SDS011;61927;50.080;14.418;2023-02-17T01:39:40;29.70;;;18.15;;
73632;SDS011;61927;50.080;14.418;2023-02-17T01:42:05;31.20;;;18.48;;
73632;SDS011;61927;50.080;14.418;2023-02-17T01:44:34;31.63;;;18.58;;
73632;SDS011;61927;50.080;14.418;2023-02-17T01:46:59;34.78;;;18.52;;
73632;SDS011;61927;50.080;14.418;2023-02-17T01:52:18;34.95;;;18.42;;
73632;SDS011;61927;50.080;14.418;2023-02-17T01:54:53;36.92;;;18.48;;
73632;SDS011;61927;50.080;14.418;2023-02-17T01:57:24;31.88;;;17.85;;
73632;SDS011;61927;50.080;14.418;2023-02-17T01:59:53;30.90;;;19.20;;
73632;SDS011;61927;50.080;14.418;2023-02-17T02:02:19;33.33;;;18.88;;
73632;SDS011;61927;50.080;14.418;2023-02-17T02:04:47;31.00;;;18.83;;
73632;SDS011;61927;50.080;14.418;2023-02-17T02:07:20;27.25;;;17.83;;
73632;SDS011;61927;50.080;14.418;2023-02-17T02:09:58;36.60;;;18.98;;
73632;SDS011;61927;50.080;14.418;2023-02-17T02:12:31;28.73;;;18.55;;
73632;SDS011;61927;50.080;14.418;2023-02-17T02:15:02;33.97;;;19.08;;
73632;SDS011;61927;50.080;14.418;2023-02-17T02:26:17;30.50;;;17.48;;
73632;SDS011;61927;50.080;14.418;2023-02-17T02:29:22;30.08;;;16.33;;
73632;SDS011;61927;50.080;14.418;2023-02-17T02:34:31;27.65;;;16.10;;
73632;SDS011;61927;50.080;14.418;2023-02-17T02:37:21;28.90;;;16.67;;
73632;SDS011;61927;50.080;14.418;2023-02-17T02:39:51;24.92;;;16.63;;
73632;SDS011;61927;50.080;14.418;2023-02-17T02:42:20;30.80;;;17.10;;
73632;SDS011;61927;50.080;14.418;2023-02-17T02:44:48;27.08;;;17.35;;
73632;SDS011;61927;50.080;14.418;2023-02-17T02:50:36;28.90;;;16.40;;
73632;SDS011;61927;50.080;14.418;2023-02-17T02:58:31;24.25;;;15.40;;
73632;SDS011;61927;50.080;14.418;2023-02-17T03:01:13;28.23;;;16.33;;
73632;SDS011;61927;50.080;14.418;2023-02-17T03:06:29;31.42;;;17.35;;
73632;SDS011;61927;50.080;14.418;2023-02-17T03:09:07;27.08;;;16.30;;
73632;SDS011;61927;50.080;14.418;2023-02-17T03:11:37;31.08;;;16.42;;
73632;SDS011;61927;50.080;14.418;2023-02-17T03:14:05;30.02;;;16.90;;
73632;SDS011;61927;50.080;14.418;2023-02-17T03:16:33;34.08;;;17.08;;
73632;SDS011;61927;50.080;14.418;2023-02-17T03:19:00;29.60;;;17.48;;
73632;SDS011;61927;50.080;14.418;2023-02-17T03:21:28;26.60;;;17.15;;
73632;SDS011;61927;50.080;14.418;2023-02-17T03:23:59;28.70;;;18.10;;
73632;SDS011;61927;50.080;14.418;2023-02-17T03:26:25;30.10;;;16.98;;
73632;SDS011;61927;50.080;14.418;2023-02-17T03:28:51;38.88;;;22.27;;
73632;SDS011;61927;50.080;14.418;2023-02-17T03:31:16;31.95;;;18.63;;
73632;SDS011;61927;50.080;14.418;2023-02-17T03:33:42;26.90;;;16.58;;
73632;SDS011;61927;50.080;14.418;2023-02-17T03:36:07;28.10;;;17.30;;
73632;SDS011;61927;50.080;14.418;2023-02-17T03:38:33;29.90;;;16.55;;
73632;SDS011;61927;50.080;14.418;2023-02-17T03:40:58;30.40;;;16.45;;
73632;SDS011;61927;50.080;14.418;2023-02-17T03:43:24;29.90;;;17.38;;
73632;SDS011;61927;50.080;14.418;2023-02-17T03:45:50;28.08;;;16.73;;
73632;SDS011;61927;50.080;14.418;2023-02-17T03:48:16;28.23;;;16.63;;
73632;SDS011;61927;50.080;14.418;2023-02-17T03:50:41;33.53;;;17.55;;
73632;SDS011;61927;50.080;14.418;2023-02-17T03:53:07;31.75;;;17.63;;
73632;SDS011;61927;50.080;14.418;2023-02-17T03:55:32;30.27;;;17.25;;
73632;SDS011;61927;50.080;14.418;2023-02-17T03:57:58;27.45;;;17.25;;
73632;SDS011;61927;50.080;14.418;2023-02-17T04:00:23;36.47;;;17.17;;
73632;SDS011;61927;50.080;14.418;2023-02-17T04:02:49;31.23;;;19.05;;
73632;SDS011;61927;50.080;14.418;2023-02-17T04:05:15;30.10;;;17.23;;
73632;SDS011;61927;50.080;14.418;2023-02-17T04:07:41;27.75;;;17.63;;
73632;SDS011;61927;50.080;14.418;2023-02-17T04:10:07;25.20;;;16.73;;
73632;SDS011;61927;50.080;14.418;2023-02-17T04:12:33;32.22;;;16.35;;
73632;SDS011;61927;50.080;14.418;2023-02-17T04:14:58;29.42;;;17.77;;
73632;SDS011;61927;50.080;14.418;2023-02-17T04:17:24;28.92;;;16.98;;
73632;SDS011;61927;50.080;14.418;2023-02-17T04:19:49;28.35;;;16.83;;
73632;SDS011;61927;50.080;14.418;2023-02-17T04:22:15;25.83;;;16.38;;
73632;SDS011;61927;50.080;14.418;2023-02-17T04:24:41;26.73;;;16.77;;
73632;SDS011;61927;50.080;14.418;2023-02-17T04:27:06;29.63;;;16.80;;
73632;SDS011;61927;50.080;14.418;2023-02-17T04:29:33;30.13;;;16.77;;
73632;SDS011;61927;50.080;14.418;2023-02-17T04:31:59;33.47;;;17.73;;
73632;SDS011;61927;50.080;14.418;2023-02-17T04:34:25;29.52;;;16.08;;
73632;SDS011;61927;50.080;14.418;2023-02-17T04:36:51;24.58;;;15.50;;
73632;SDS011;61927;50.080;14.418;2023-02-17T04:39:16;23.50;;;15.38;;
73632;SDS011;61927;50.080;14.418;2023-02-17T04:41:42;28.55;;;14.88;;
73632;SDS011;61927;50.080;14.418;2023-02-17T04:44:08;21.83;;;14.63;;
73632;SDS011;61927;50.080;14.418;2023-02-17T04:46:34;19.63;;;12.98;;
73632;SDS011;61927;50.080;14.418;2023-02-17T04:48:59;20.50;;;13.27;;
73632;SDS011;61927;50.080;14.418;2023-02-17T04:51:25;19.73;;;11.93;;
73632;SDS011;61927;50.080;14.418;2023-02-17T04:53:51;18.95;;;11.98;;
73632;SDS011;61927;50.080;14.418;2023-02-17T04:56:16;25.35;;;13.27;;
73632;SDS011;61927;50.080;14.418;2023-02-17T04:58:42;21.45;;;13.07;;
73632;SDS011;61927;50.080;14.418;2023-02-17T05:01:09;18.35;;;12.32;;
73632;SDS011;61927;50.080;14.418;2023-02-17T05:03:34;24.95;;;12.15;;
73632;SDS011;61927;50.080;14.418;2023-02-17T05:06:00;22.73;;;12.55;;
73632;SDS011;61927;50.080;14.418;2023-02-17T05:08:25;23.55;;;12.10;;
73632;SDS011;61927;50.080;14.418;2023-02-17T05:10:51;21.58;;;11.85;;
73632;SDS011;61927;50.080;14.418;2023-02-17T05:13:17;23.38;;;11.88;;
73632;SDS011;61927;50.080;14.418;2023-02-17T05:15:43;18.23;;;11.85;;
73632;SDS011;61927;50.080;14.418;2023-02-17T05:18:09;22.05;;;12.48;;
73632;SDS011;61927;50.080;14.418;2023-02-17T05:20:36;19.02;;;11.88;;
73632;SDS011;61927;50.080;14.418;2023-02-17T05:23:01;17.80;;;11.25;;
73632;SDS011;61927;50.080;14.418;2023-02-17T05:25:27;18.15;;;10.30;;
73632;SDS011;61927;50.080;14.418;2023-02-17T05:27:52;15.25;;;9.63;;
73632;SDS011;61927;50.080;14.418;2023-02-17T05:30:18;16.00;;;9.75;;
73632;SDS011;61927;50.080;14.418;2023-02-17T05:32:44;15.65;;;9.88;;
73632;SDS011;61927;50.080;14.418;2023-02-17T05:35:10;14.27;;;8.80;;
73632;SDS011;61927;50.080;14.418;2023-02-17T05:37:36;14.35;;;8.60;;
73632;SDS011;61927;50.080;14.418;2023-02-17T05:40:02;13.82;;;8.05;;
73632;SDS011;61927;50.080;14.418;2023-02-17T05:42:28;20.15;;;7.75;;
73632;SDS011;61927;50.080;14.418;2023-02-17T05:44:54;12.77;;;7.47;;
73632;SDS011;61927;50.080;14.418;2023-02-17T05:47:20;13.18;;;7.63;;
73632;SDS011;61927;50.080;14.418;2023-02-17T05:49:46;10.80;;;7.15;;
73632;SDS011;61927;50.080;14.418;2023-02-17T05:52:12;11.27;;;6.80;;
73632;SDS011;61927;50.080;14.418;2023-02-17T05:54:38;16.85;;;8.00;;
73632;SDS011;61927;50.080;14.418;2023-02-17T05:57:03;11.57;;;6.68;;
73632;SDS011;61927;50.080;14.418;2023-02-17T05:59:29;14.65;;;6.82;;
73632;SDS011;61927;50.080;14.418;2023-02-17T06:01:54;12.65;;;7.32;;
73632;SDS011;61927;50.080;14.418;2023-02-17T06:04:20;12.40;;;7.93;;
73632;SDS011;61927;50.080;14.418;2023-02-17T06:06:45;10.70;;;6.90;;
73632;SDS011;61927;50.080;14.418;2023-02-17T06:09:11;19.95;;;7.43;;
73632;SDS011;61927;50.080;14.418;2023-02-17T06:11:37;11.57;;;7.35;;
73632;SDS011;61927;50.080;14.418;2023-02-17T06:14:03;11.70;;;7.43;;
73632;SDS011;61927;50.080;14.418;2023-02-17T06:16:28;14.63;;;7.47;;
73632;SDS011;61927;50.080;14.418;2023-02-17T06:18:54;16.20;;;7.05;;
73632;SDS011;61927;50.080;14.418;2023-02-17T06:21:19;14.77;;;7.20;;
73632;SDS011;61927;50.080;14.418;2023-02-17T06:23:45;12.25;;;7.35;;
73632;SDS011;61927;50.080;14.418;2023-02-17T06:26:11;13.80;;;7.30;;
73632;SDS011;61927;50.080;14.418;2023-02-17T06:28:38;14.35;;;7.00;;
73632;SDS011;61927;50.080;14.418;2023-02-17T06:31:04;13.25;;;6.85;;
73632;SDS011;61927;50.080;14.418;2023-02-17T06:33:30;18.55;;;10.35;;
73632;SDS011;61927;50.080;14.418;2023-02-17T06:35:55;12.60;;;7.80;;
73632;SDS011;61927;50.080;14.418;2023-02-17T06:38:21;11.13;;;7.30;;
73632;SDS011;61927;50.080;14.418;2023-02-17T06:40:46;12.65;;;7.30;;
73632;SDS011;61927;50.080;14.418;2023-02-17T06:43:12;12.57;;;6.63;;
73632;SDS011;61927;50.080;14.418;2023-02-17T06:45:38;11.13;;;7.90;;
73632;SDS011;61927;50.080;14.418;2023-02-17T06:48:04;13.38;;;7.15;;
73632;SDS011;61927;50.080;14.418;2023-02-17T06:50:29;10.95;;;7.22;;
73632;SDS011;61927;50.080;14.418;2023-02-17T06:52:55;12.68;;;7.57;;
73632;SDS011;61927;50.080;14.418;2023-02-17T06:55:21;22.67;;;6.95;;
73632;SDS011;61927;50.080;14.418;2023-02-17T06:57:47;14.90;;;6.85;;
73632;SDS011;61927;50.080;14.418;2023-02-17T07:00:12;15.88;;;7.78;;
73632;SDS011;61927;50.080;14.418;2023-02-17T07:02:38;16.10;;;7.07;;
73632;SDS011;61927;50.080;14.418;2023-02-17T07:05:05;14.30;;;7.57;;
73632;SDS011;61927;50.080;14.418;2023-02-17T07:07:32;11.45;;;6.85;;
73632;SDS011;61927;50.080;14.418;2023-02-17T07:09:57;12.52;;;7.00;;
73632;SDS011;61927;50.080;14.418;2023-02-17T07:12:23;11.05;;;6.85;;
73632;SDS011;61927;50.080;14.418;2023-02-17T07:14:49;12.73;;;6.95;;
73632;SDS011;61927;50.080;14.418;2023-02-17T07:17:14;9.43;;;6.45;;
73632;SDS011;61927;50.080;14.418;2023-02-17T07:19:40;12.25;;;6.50;;
73632;SDS011;61927;50.080;14.418;2023-02-17T07:22:05;14.07;;;6.50;;
73632;SDS011;61927;50.080;14.418;2023-02-17T07:24:31;10.27;;;6.40;;
73632;SDS011;61927;50.080;14.418;2023-02-17T07:26:58;13.75;;;6.38;;
73632;SDS011;61927;50.080;14.418;2023-02-17T07:29:25;9.77;;;5.60;;
73632;SDS011;61927;50.080;14.418;2023-02-17T07:31:51;13.88;;;5.65;;
73632;SDS011;61927;50.080;14.418;2023-02-17T07:34:17;9.32;;;5.78;;
73632;SDS011;61927;50.080;14.418;2023-02-17T07:36:43;9.13;;;5.50;;
73632;SDS011;61927;50.080;14.418;2023-02-17T07:39:09;12.35;;;6.15;;
73632;SDS011;61927;50.080;14.418;2023-02-17T07:41:34;8.63;;;5.20;;
73632;SDS011;61927;50.080;14.418;2023-02-17T07:44:01;7.40;;;4.93;;
73632;SDS011;61927;50.080;14.418;2023-02-17T07:46:27;13.50;;;8.27;;
73632;SDS011;61927;50.080;14.418;2023-02-17T07:48:52;11.63;;;5.45;;
73632;SDS011;61927;50.080;14.418;2023-02-17T07:51:20;7.43;;;4.90;;
73632;SDS011;61927;50.080;14.418;2023-02-17T07:53:46;10.93;;;5.15;;
73632;SDS011;61927;50.080;14.418;2023-02-17T07:56:13;8.30;;;5.30;;
73632;SDS011;61927;50.080;14.418;2023-02-17T07:58:41;12.82;;;4.80;;
73632;SDS011;61927;50.080;14.418;2023-02-17T08:01:12;8.95;;;4.90;;
73632;SDS011;61927;50.080;14.418;2023-02-17T08:03:41;7.80;;;5.07;;
73632;SDS011;61927;50.080;14.418;2023-02-17T08:06:08;15.82;;;5.60;;
73632;SDS011;61927;50.080;14.418;2023-02-17T08:08:35;11.27;;;6.25;;
73632;SDS011;61927;50.080;14.418;2023-02-17T08:11:20;19.98;;;6.07;;
73632;SDS011;61927;50.080;14.418;2023-02-17T08:14:04;8.82;;;5.65;;
73632;SDS011;61927;50.080;14.418;2023-02-17T08:16:30;12.93;;;6.55;;
73632;SDS011;61927;50.080;14.418;2023-02-17T08:18:56;9.13;;;5.68;;
73632;SDS011;61927;50.080;14.418;2023-02-17T08:21:22;12.30;;;5.90;;
73632;SDS011;61927;50.080;14.418;2023-02-17T08:23:49;14.23;;;5.78;;
73632;SDS011;61927;50.080;14.418;2023-02-17T08:26:14;12.43;;;5.65;;
73632;SDS011;61927;50.080;14.418;2023-02-17T08:28:42;7.70;;;5.03;;
73632;SDS011;61927;50.080;14.418;2023-02-17T08:31:18;9.13;;;5.82;;
73632;SDS011;61927;50.080;14.418;2023-02-17T08:33:52;19.55;;;5.55;;
73632;SDS011;61927;50.080;14.418;2023-02-17T08:36:19;9.18;;;5.40;;
73632;SDS011;61927;50.080;14.418;2023-02-17T08:38:46;14.45;;;6.53;;
73632;SDS011;61927;50.080;14.418;2023-02-17T08:41:17;10.38;;;6.05;;
73632;SDS011;61927;50.080;14.418;2023-02-17T08:43:47;11.00;;;5.40;;
73632;SDS011;61927;50.080;14.418;2023-02-17T08:46:13;11.55;;;5.63;;
73632;SDS011;61927;50.080;14.418;2023-02-17T08:48:39;10.65;;;5.90;;
73632;SDS011;61927;50.080;14.418;2023-02-17T08:51:06;14.98;;;5.80;;
73632;SDS011;61927;50.080;14.418;2023-02-17T08:53:32;13.35;;;5.05;;
73632;SDS011;61927;50.080;14.418;2023-02-17T08:55:59;10.55;;;5.47;;
73632;SDS011;61927;50.080;14.418;2023-02-17T08:58:24;9.30;;;5.47;;
73632;SDS011;61927;50.080;14.418;2023-02-17T09:00:50;14.10;;;6.00;;
73632;SDS011;61927;50.080;14.418;2023-02-17T09:03:16;14.80;;;6.05;;
73632;SDS011;61927;50.080;14.418;2023-02-17T09:05:41;11.43;;;5.35;;
73632;SDS011;61927;50.080;14.418;2023-02-17T09:08:07;14.02;;;7.55;;
73632;SDS011;61927;50.080;14.418;2023-02-17T09:10:33;14.80;;;8.73;;
73632;SDS011;61927;50.080;14.418;2023-02-17T09:12:58;13.57;;;5.28;;
73632;SDS011;61927;50.080;14.418;2023-02-17T09:15:24;13.30;;;5.68;;
73632;SDS011;61927;50.080;14.418;2023-02-17T09:17:50;9.85;;;5.72;;
73632;SDS011;61927;50.080;14.418;2023-02-17T09:20:15;10.70;;;5.15;;
73632;SDS011;61927;50.080;14.418;2023-02-17T09:22:43;11.68;;;6.35;;
73632;SDS011;61927;50.080;14.418;2023-02-17T09:25:09;9.50;;;5.45;;
73632;SDS011;61927;50.080;14.418;2023-02-17T09:27:34;14.80;;;5.75;;
73632;SDS011;61927;50.080;14.418;2023-02-17T09:30:00;17.60;;;5.68;;
73632;SDS011;61927;50.080;14.418;2023-02-17T09:32:26;15.98;;;6.60;;
73632;SDS011;61927;50.080;14.418;2023-02-17T09:34:51;11.48;;;5.35;;
73632;SDS011;61927;50.080;14.418;2023-02-17T09:37:17;17.25;;;5.80;;
73632;SDS011;61927;50.080;14.418;2023-02-17T09:39:44;9.40;;;5.00;;
73632;SDS011;61927;50.080;14.418;2023-02-17T09:42:12;11.00;;;5.30;;
73632;SDS011;61927;50.080;14.418;2023-02-17T09:44:44;15.45;;;5.72;;
73632;SDS011;61927;50.080;14.418;2023-02-17T09:47:22;8.15;;;5.18;;
73632;SDS011;61927;50.080;14.418;2023-02-17T09:49:59;6.75;;;5.38;;
73632;SDS011;61927;50.080;14.418;2023-02-17T09:52:31;13.57;;;5.82;;
73632;SDS011;61927;50.080;14.418;2023-02-17T09:55:15;6.60;;;4.63;;
73632;SDS011;61927;50.080;14.418;2023-02-17T09:57:56;9.68;;;5.43;;
73632;SDS011;61927;50.080;14.418;2023-02-17T10:00:43;10.45;;;5.47;;
73632;SDS011;61927;50.080;14.418;2023-02-17T10:03:13;13.70;;;5.45;;
73632;SDS011;61927;50.080;14.418;2023-02-17T10:06:17;10.65;;;5.00;;
73632;SDS011;61927;50.080;14.418;2023-02-17T10:09:00;13.60;;;7.35;;
73632;SDS011;61927;50.080;14.418;2023-02-17T10:11:34;7.53;;;4.22;;
73632;SDS011;61927;50.080;14.418;2023-02-17T10:14:13;13.05;;;4.65;;
73632;SDS011;61927;50.080;14.418;2023-02-17T10:16:50;9.45;;;4.28;;
73632;SDS011;61927;50.080;14.418;2023-02-17T10:19:24;10.10;;;3.80;;
73632;SDS011;61927;50.080;14.418;2023-02-17T10:21:57;6.78;;;4.13;;
73632;SDS011;61927;50.080;14.418;2023-02-17T10:24:29;8.13;;;4.70;;
73632;SDS011;61927;50.080;14.418;2023-02-17T10:30:00;6.80;;;4.05;;
73632;SDS011;61927;50.080;14.418;2023-02-17T10:32:28;10.18;;;4.30;;
73632;SDS011;61927;50.080;14.418;2023-02-17T10:37:47;15.65;;;4.15;;
73632;SDS011;61927;50.080;14.418;2023-02-17T10:40:16;8.68;;;4.05;;
73632;SDS011;61927;50.080;14.418;2023-02-17T10:42:44;7.28;;;4.05;;
73632;SDS011;61927;50.080;14.418;2023-02-17T10:45:22;6.82;;;4.35;;
73632;SDS011;61927;50.080;14.418;2023-02-17T10:47:56;13.75;;;4.15;;
73632;SDS011;61927;50.080;14.418;2023-02-17T10:50:27;6.65;;;3.80;;
73632;SDS011;61927;50.080;14.418;2023-02-17T10:52:53;7.05;;;4.00;;
73632;SDS011;61927;50.080;14.418;2023-02-17T10:55:37;15.02;;;5.18;;
73632;SDS011;61927;50.080;14.418;2023-02-17T11:00:40;8.65;;;4.20;;
73632;SDS011;61927;50.080;14.418;2023-02-17T11:03:17;8.73;;;3.30;;
73632;SDS011;61927;50.080;14.418;2023-02-17T11:05:50;6.72;;;4.55;;
73632;SDS011;61927;50.080;14.418;2023-02-17T11:10:59;10.90;;;3.25;;
73632;SDS011;61927;50.080;14.418;2023-02-17T11:14:30;4.20;;;2.90;;
73632;SDS011;61927;50.080;14.418;2023-02-17T11:19:01;4.30;;;2.88;;
73632;SDS011;61927;50.080;14.418;2023-02-17T11:21:28;6.90;;;3.58;;
73632;SDS011;61927;50.080;14.418;2023-02-17T11:23:55;7.85;;;3.03;;
73632;SDS011;61927;50.080;14.418;2023-02-17T11:26:25;2.70;;;2.53;;
73632;SDS011;61927;50.080;14.418;2023-02-17T11:28:53;6.85;;;3.75;;
73632;SDS011;61927;50.080;14.418;2023-02-17T11:31:29;3.72;;;2.95;;
73632;SDS011;61927;50.080;14.418;2023-02-17T11:33:55;6.10;;;4.10;;
73632;SDS011;61927;50.080;14.418;2023-02-17T11:36:23;8.68;;;3.92;;
73632;SDS011;61927;50.080;14.418;2023-02-17T11:38:55;9.57;;;4.15;;
73632;SDS011;61927;50.080;14.418;2023-02-17T11:41:22;4.32;;;3.20;;
73632;SDS011;61927;50.080;14.418;2023-02-17T11:43:55;9.90;;;3.03;;
73632;SDS011;61927;50.080;14.418;2023-02-17T11:49:15;13.65;;;3.83;;
73632;SDS011;61927;50.080;14.418;2023-02-17T11:54:47;11.50;;;3.50;;
73632;SDS011;61927;50.080;14.418;2023-02-17T12:05:51;4.22;;;3.30;;
73632;SDS011;61927;50.080;14.418;2023-02-17T12:16:49;5.80;;;2.83;;
73632;SDS011;61927;50.080;14.418;2023-02-17T12:21:55;4.35;;;3.13;;
73632;SDS011;61927;50.080;14.418;2023-02-17T12:24:39;3.55;;;2.75;;
73632;SDS011;61927;50.080;14.418;2023-02-17T12:30:21;6.40;;;3.08;;
73632;SDS011;61927;50.080;14.418;2023-02-17T12:33:02;6.88;;;2.67;;
73632;SDS011;61927;50.080;14.418;2023-02-17T12:35:47;7.18;;;3.10;;
73632;SDS011;61927;50.080;14.418;2023-02-17T12:38:18;3.53;;;2.92;;
73632;SDS011;61927;50.080;14.418;2023-02-17T12:41:01;6.40;;;3.10;;
73632;SDS011;61927;50.080;14.418;2023-02-17T12:46:19;14.57;;;8.20;;
73632;SDS011;61927;50.080;14.418;2023-02-17T12:48:50;9.38;;;3.38;;
73632;SDS011;61927;50.080;14.418;2023-02-17T12:51:40;4.93;;;2.60;;
73632;SDS011;61927;50.080;14.418;2023-02-17T12:56:53;4.15;;;2.83;;
73632;SDS011;61927;50.080;14.418;2023-02-17T12:59:40;7.63;;;4.20;;
73632;SDS011;61927;50.080;14.418;2023-02-17T13:02:12;8.98;;;3.25;;
73632;SDS011;61927;50.080;14.418;2023-02-17T13:04:49;3.20;;;2.90;;
73632;SDS011;61927;50.080;14.418;2023-02-17T13:10:01;5.72;;;3.47;;
73632;SDS011;61927;50.080;14.418;2023-02-17T13:12:33;4.03;;;2.60;;
73632;SDS011;61927;50.080;14.418;2023-02-17T13:15:05;4.55;;;2.70;;
73632;SDS011;61927;50.080;14.418;2023-02-17T13:17:54;6.50;;;2.50;;
73632;SDS011;61927;50.080;14.418;2023-02-17T13:20:27;6.47;;;2.92;;
73632;SDS011;61927;50.080;14.418;2023-02-17T13:23:07;2.83;;;2.45;;
73632;SDS011;61927;50.080;14.418;2023-02-17T13:25:36;4.55;;;3.25;;
73632;SDS011;61927;50.080;14.418;2023-02-17T13:28:14;3.20;;;2.47;;
73632;SDS011;61927;50.080;14.418;2023-02-17T13:30:43;3.67;;;2.30;;
73632;SDS011;61927;50.080;14.418;2023-02-17T13:35:44;2.60;;;1.90;;
73632;SDS011;61927;50.080;14.418;2023-02-17T13:38:10;5.50;;;2.08;;
73632;SDS011;61927;50.080;14.418;2023-02-17T13:40:39;4.18;;;2.65;;
73632;SDS011;61927;50.080;14.418;2023-02-17T13:43:08;2.80;;;2.50;;
73632;SDS011;61927;50.080;14.418;2023-02-17T13:45:48;10.43;;;4.03;;
73632;SDS011;61927;50.080;14.418;2023-02-17T13:48:23;3.10;;;2.80;;
73632;SDS011;61927;50.080;14.418;2023-02-17T13:50:53;4.50;;;2.50;;
73632;SDS011;61927;50.080;14.418;2023-02-17T13:53:33;3.00;;;2.20;;
73632;SDS011;61927;50.080;14.418;2023-02-17T13:56:04;4.47;;;3.72;;
73632;SDS011;61927;50.080;14.418;2023-02-17T13:58:34;3.17;;;2.45;;
73632;SDS011;61927;50.080;14.418;2023-02-17T14:01:02;5.35;;;2.30;;
73632;SDS011;61927;50.080;14.418;2023-02-17T14:03:32;3.75;;;2.40;;
73632;SDS011;61927;50.080;14.418;2023-02-17T14:06:11;2.78;;;2.58;;
73632;SDS011;61927;50.080;14.418;2023-02-17T14:08:46;2.30;;;2.10;;
73632;SDS011;61927;50.080;14.418;2023-02-17T14:11:13;2.97;;;2.67;;
73632;SDS011;61927;50.080;14.418;2023-02-17T14:13:43;4.22;;;2.92;;
73632;SDS011;61927;50.080;14.418;2023-02-17T14:16:27;3.22;;;2.10;;
73632;SDS011;61927;50.080;14.418;2023-02-17T14:19:09;4.03;;;2.67;;
73632;SDS011;61927;50.080;14.418;2023-02-17T14:21:40;2.22;;;2.08;;
73632;SDS011;61927;50.080;14.418;2023-02-17T14:24:26;4.20;;;2.50;;
73632;SDS011;61927;50.080;14.418;2023-02-17T14:27:00;2.30;;;2.10;;
73632;SDS011;61927;50.080;14.418;2023-02-17T14:29:44;1.83;;;1.73;;
73632;SDS011;61927;50.080;14.418;2023-02-17T14:34:52;2.30;;;2.10;;
73632;SDS011;61927;50.080;14.418;2023-02-17T14:37:21;3.50;;;1.80;;
73632;SDS011;61927;50.080;14.418;2023-02-17T14:39:49;3.40;;;1.60;;
73632;SDS011;61927;50.080;14.418;2023-02-17T14:42:15;3.17;;;1.60;;
73632;SDS011;61927;50.080;14.418;2023-02-17T14:44:41;4.72;;;1.58;;
73632;SDS011;61927;50.080;14.418;2023-02-17T14:47:07;1.63;;;1.52;;
73632;SDS011;61927;50.080;14.418;2023-02-17T14:49:32;1.70;;;1.60;;
73632;SDS011;61927;50.080;14.418;2023-02-17T14:51:58;2.65;;;1.52;;
73632;SDS011;61927;50.080;14.418;2023-02-17T14:54:30;4.03;;;1.25;;
73632;SDS011;61927;50.080;14.418;2023-02-17T14:57:02;1.60;;;1.50;;
73632;SDS011;61927;50.080;14.418;2023-02-17T14:59:30;2.20;;;1.42;;
73632;SDS011;61927;50.080;14.418;2023-02-17T15:01:56;1.63;;;1.40;;
73632;SDS011;61927;50.080;14.418;2023-02-17T15:04:22;2.67;;;1.60;;
73632;SDS011;61927;50.080;14.418;2023-02-17T15:06:48;2.67;;;1.40;;
73632;SDS011;61927;50.080;14.418;2023-02-17T15:09:16;2.00;;;1.90;;
73632;SDS011;61927;50.080;14.418;2023-02-17T15:11:45;1.63;;;1.50;;
73632;SDS011;61927;50.080;14.418;2023-02-17T15:14:16;2.15;;;1.50;;
73632;SDS011;61927;50.080;14.418;2023-02-17T15:16:44;5.80;;;1.70;;
73632;SDS011;61927;50.080;14.418;2023-02-17T15:19:11;3.05;;;1.67;;
73632;SDS011;61927;50.080;14.418;2023-02-17T15:21:38;1.48;;;1.38;;
73632;SDS011;61927;50.080;14.418;2023-02-17T15:24:18;2.97;;;2.13;;
73632;SDS011;61927;50.080;14.418;2023-02-17T15:26:48;7.53;;;5.00;;
73632;SDS011;61927;50.080;14.418;2023-02-17T15:29:16;2.45;;;2.25;;
73632;SDS011;61927;50.080;14.418;2023-02-17T15:31:44;1.63;;;1.52;;
73632;SDS011;61927;50.080;14.418;2023-02-17T15:34:12;1.77;;;1.67;;
73632;SDS011;61927;50.080;14.418;2023-02-17T15:36:43;2.53;;;1.83;;
73632;SDS011;61927;50.080;14.418;2023-02-17T15:39:10;1.83;;;1.73;;
73632;SDS011;61927;50.080;14.418;2023-02-17T15:41:37;1.63;;;1.52;;
73632;SDS011;61927;50.080;14.418;2023-02-17T15:44:04;4.15;;;1.73;;
73632;SDS011;61927;50.080;14.418;2023-02-17T15:46:31;3.15;;;2.25;;
73632;SDS011;61927;50.080;14.418;2023-02-17T15:48:57;2.03;;;1.92;;
73632;SDS011;61927;50.080;14.418;2023-02-17T15:51:23;3.33;;;2.97;;
73632;SDS011;61927;50.080;14.418;2023-02-17T15:53:52;12.45;;;3.88;;